Time;durP1;ratioP1;P1;durP2;ratioP2;P2;SDS_P1;SDS_P2;PMS_P1;PMS_P2;Temp;Humidity;BMP_temperature;BMP_pressure;BME280_temperature;BME280_humidity;BME280_pressure;Samples;Min_cycle;Max_cycle;Signal;HPM_P1;HPM_P2
2022/09/08 15:38:38;;;;;;;16.43;15.10;;;19.30;99.90;;;;;;6161091;22;1548307;-77
2022/09/08 15:41:22;;;;;;;19.50;17.43;;;19.30;99.90;;;;;;6131338;23;20430;-77
2022/09/08 15:44:05;;;;;;;18.60;16.90;;;19.30;99.90;;;;;;6126497;23;20433;-76
2022/09/08 15:46:44;;;;;;;19.53;17.67;;;19.30;99.90;;;;;;6114419;23;20434;-77
2022/09/08 15:49:22;;;;;;;17.97;16.10;;;19.30;99.90;;;;;;6127027;23;20727;-76
2022/09/08 15:52:07;;;;;;;16.93;15.53;;;19.30;99.90;;;;;;6127593;23;20546;-77
2022/09/08 15:54:48;;;;;;;22.30;20.10;;;19.40;99.90;;;;;;6138611;23;20757;-78
2022/09/08 15:57:27;;;;;;;16.70;15.30;;;19.30;99.90;;;;;;6124923;23;20440;-77
2022/09/08 16:00:12;;;;;;;15.57;14.23;;;19.40;99.90;;;;;;6126213;23;20534;-77
2022/09/08 16:02:59;;;;;;;18.07;16.47;;;19.40;99.90;;;;;;6127906;23;20940;-76
2022/09/08 16:05:52;;;;;;;17.90;16.20;;;19.40;99.90;;;;;;6134701;23;20445;-77
2022/09/08 16:08:34;;;;;;;19.30;17.50;;;19.40;99.90;;;;;;6155987;23;20433;-78
2022/09/08 16:11:24;;;;;;;16.50;15.13;;;19.40;99.90;;;;;;6156561;23;20429;-76
2022/09/08 16:14:01;;;;;;;20.77;18.93;;;19.50;99.90;;;;;;6157814;23;20785;-77
2022/09/08 16:16:37;;;;;;;17.90;16.30;;;19.50;99.90;;;;;;6155647;23;20862;-76
2022/09/08 16:19:07;;;;;;;15.77;14.37;;;19.50;99.90;;;;;;6156141;23;20444;-76
2022/09/08 16:21:38;;;;;;;19.77;18.00;;;19.50;99.90;;;;;;6157182;23;20441;-75
2022/09/08 16:24:09;;;;;;;17.23;15.57;;;19.60;99.90;;;;;;6156888;23;20921;-78
2022/09/08 16:26:48;;;;;;;21.27;19.37;;;19.60;99.90;;;;;;6157647;23;20429;-78
2022/09/08 16:29:35;;;;;;;21.73;19.50;;;19.60;99.90;;;;;;6154466;23;20452;-78
2022/09/08 16:32:10;;;;;;;19.13;17.40;;;19.60;99.90;;;;;;6156960;23;20438;-78
2022/09/08 16:34:46;;;;;;;16.83;15.40;;;19.60;99.90;;;;;;6156554;23;20425;-78
2022/09/08 16:37:25;;;;;;;17.57;15.93;;;19.70;99.90;;;;;;6155837;23;20800;-78
2022/09/08 16:40:11;;;;;;;15.83;14.53;;;19.70;99.90;;;;;;6116396;23;20447;-78
2022/09/08 16:42:52;;;;;;;16.93;15.37;;;19.70;99.90;;;;;;6097554;23;20431;-78
2022/09/08 16:45:43;;;;;;;16.10;14.57;;;19.70;99.90;;;;;;6097767;23;20530;-78
2022/09/08 16:48:16;;;;;;;15.50;14.20;;;19.70;99.90;;;;;;6096451;23;20443;-76
2022/09/08 16:50:58;;;;;;;21.17;19.37;;;19.80;99.90;;;;;;6098016;23;20439;-78
2022/09/08 16:53:32;;;;;;;15.87;14.57;;;19.80;99.90;;;;;;6096411;23;20432;-78
2022/09/08 16:56:04;;;;;;;18.57;16.90;;;19.80;99.90;;;;;;6097262;23;20451;-78
2022/09/08 16:58:35;;;;;;;17.73;16.23;;;19.80;99.90;;;;;;6097532;23;20514;-78
2022/09/08 17:01:19;;;;;;;16.37;15.03;;;19.80;99.90;;;;;;6098243;23;20435;-78
2022/09/08 17:03:51;;;;;;;16.23;14.87;;;19.90;99.90;;;;;;6097218;23;20515;-78
2022/09/08 17:06:30;;;;;;;16.77;15.37;;;19.90;99.90;;;;;;6082275;23;20589;-78
2022/09/08 17:09:08;;;;;;;21.07;19.37;;;19.90;99.90;;;;;;6096344;23;20774;-78
2022/09/08 17:11:44;;;;;;;20.57;18.80;;;19.90;99.90;;;;;;6097088;23;20435;-78
2022/09/08 17:14:16;;;;;;;17.10;15.67;;;19.90;99.90;;;;;;6096983;23;20504;-77
2022/09/08 17:17:09;;;;;;;15.20;13.90;;;19.90;99.90;;;;;;6094336;23;20471;-78
2022/09/08 17:19:52;;;;;;;18.23;16.70;;;19.90;99.90;;;;;;6097119;23;20435;-78
2022/09/08 17:22:56;;;;;;;16.70;15.20;;;19.90;99.90;;;;;;6097865;23;20436;-77
2022/09/08 17:25:46;;;;;;;15.73;14.13;;;19.90;99.90;;;;;;6051302;23;20443;-77
2022/09/08 17:28:52;;;;;;;13.20;12.00;;;19.90;99.90;;;;;;6097722;23;20498;-77
2022/09/08 17:31:27;;;;;;;10.80;9.90;;;19.90;99.90;;;;;;6097071;23;20483;-77
2022/09/08 17:34:31;;;;;;;14.73;13.37;;;19.90;99.90;;;;;;6096686;23;20747;-77
2022/09/08 17:37:11;;;;;;;15.07;13.73;;;19.80;99.90;;;;;;6094158;23;20451;-77
2022/09/08 17:39:42;;;;;;;13.50;12.33;;;19.80;99.90;;;;;;6132272;23;20520;-78
2022/09/08 17:42:15;;;;;;;16.03;14.63;;;19.80;99.90;;;;;;6155748;23;20504;-77
2022/09/08 17:44:54;;;;;;;10.23;9.43;;;19.80;99.90;;;;;;6154509;23;20437;-77
2022/09/08 17:47:41;;;;;;;9.13;8.43;;;19.80;99.90;;;;;;6155917;23;20529;-77
2022/09/08 17:50:22;;;;;;;8.03;7.43;;;19.80;99.90;;;;;;6155798;23;20921;-79
2022/09/08 17:52:58;;;;;;;7.53;6.93;;;19.80;99.90;;;;;;6151652;23;21236;-78
2022/09/08 17:55:39;;;;;;;10.77;9.87;;;19.80;99.90;;;;;;6152035;23;20796;-77
2022/09/08 17:58:17;;;;;;;13.50;12.30;;;19.80;99.90;;;;;;6155354;23;20418;-77
2022/09/08 18:00:52;;;;;;;12.80;11.50;;;19.70;99.90;;;;;;6156127;23;20491;-78
2022/09/08 18:03:51;;;;;;;8.90;8.20;;;19.80;99.90;;;;;;6154246;23;20421;-76
2022/09/08 18:06:24;;;;;;;8.67;7.97;;;19.70;99.90;;;;;;6154673;23;20496;-76
2022/09/08 18:08:51;;;;;;;8.87;8.03;;;19.70;99.90;;;;;;6155739;23;20496;-77
2022/09/08 18:11:35;;;;;;;10.37;9.37;;;19.70;99.90;;;;;;6155171;23;20928;-76
2022/09/08 18:14:13;;;;;;;8.73;8.03;;;19.70;99.90;;;;;;6156047;23;20500;-77
2022/09/08 18:16:43;;;;;;;13.77;12.37;;;19.70;99.90;;;;;;6155212;23;21149;-77
2022/09/08 18:19:21;;;;;;;10.20;9.20;;;19.70;99.90;;;;;;6154485;23;20936;-79
2022/09/08 18:22:10;;;;;;;13.17;11.97;;;19.60;99.90;;;;;;6155338;23;20437;-79
2022/09/08 18:24:37;;;;;;;10.33;9.50;;;19.60;99.90;;;;;;6156482;23;20439;-78
2022/09/08 18:27:19;;;;;;;9.57;8.77;;;19.60;99.90;;;;;;6155241;23;20432;-77
2022/09/08 18:29:53;;;;;;;19.83;17.70;;;19.60;99.90;;;;;;6153923;23;20429;-77
2022/09/08 18:32:22;;;;;;;14.40;13.00;;;19.60;99.90;;;;;;6156769;23;20895;-77
2022/09/08 18:35:03;;;;;;;9.20;8.30;;;19.50;99.90;;;;;;6155224;23;20434;-78
2022/09/08 18:37:32;;;;;;;10.40;9.43;;;19.50;99.90;;;;;;6156514;23;20434;-78
2022/09/08 18:40:05;;;;;;;8.13;7.53;;;19.50;99.90;;;;;;6154397;23;20438;-77
2022/09/08 18:42:55;;;;;;;8.47;7.67;;;19.50;99.90;;;;;;6156274;23;20499;-78
2022/09/08 18:45:58;;;;;;;20.70;18.70;;;19.50;99.90;;;;;;6155271;23;20461;-78
2022/09/08 18:48:31;;;;;;;15.23;13.70;;;19.50;99.90;;;;;;6155647;23;20421;-78
2022/09/08 18:51:46;;;;;;;17.37;14.50;;;19.40;99.90;;;;;;6156230;23;20434;-77
2022/09/08 18:54:37;;;;;;;20.30;18.20;;;19.40;99.90;;;;;;6142494;23;21100;-78
2022/09/08 18:57:27;;;;;;;20.23;18.07;;;19.40;99.90;;;;;;6153928;23;20449;-77
2022/09/08 19:00:16;;;;;;;13.63;11.80;;;19.40;99.90;;;;;;6155524;23;21024;-79
2022/09/08 19:02:45;;;;;;;16.17;14.60;;;19.30;99.90;;;;;;6154186;23;20438;-77
2022/09/08 19:05:23;;;;;;;15.17;13.60;;;19.30;99.90;;;;;;6155651;23;20428;-78
2022/09/08 19:08:27;;;;;;;11.30;10.20;;;19.30;99.90;;;;;;6155478;23;20935;-78
2022/09/08 19:10:54;;;;;;;12.53;11.47;;;19.30;99.90;;;;;;6155173;23;20796;-78
2022/09/08 19:13:46;;;;;;;15.37;12.83;;;19.30;99.90;;;;;;6155504;23;20777;-76
2022/09/08 19:16:29;;;;;;;23.00;19.30;;;19.30;99.90;;;;;;6155249;23;20438;-77
2022/09/08 19:18:57;;;;;;;12.03;10.80;;;19.30;99.90;;;;;;6155038;23;20429;-77
2022/09/08 19:21:32;;;;;;;9.40;8.70;;;19.20;99.90;;;;;;6155460;23;20440;-76
2022/09/08 19:24:04;;;;;;;33.80;30.23;;;19.30;99.90;;;;;;6155175;23;20437;-78
2022/09/08 19:26:49;;;;;;;16.50;15.00;;;19.30;99.90;;;;;;6156007;23;20782;-78
2022/09/08 19:29:50;;;;;;;13.90;12.40;;;19.30;99.90;;;;;;6155494;23;20667;-77
2022/09/08 19:32:31;;;;;;;11.30;10.30;;;19.30;99.90;;;;;;6154707;23;20808;-78
2022/09/08 19:35:11;;;;;;;18.50;16.80;;;19.30;99.90;;;;;;6155506;23;20437;-78
2022/09/08 19:37:52;;;;;;;17.10;15.40;;;19.30;99.90;;;;;;6154934;23;20433;-78
2022/09/08 19:40:33;;;;;;;7.87;7.27;;;19.30;99.90;;;;;;6154320;23;20500;-78
2022/09/08 19:43:12;;;;;;;15.90;14.37;;;19.30;99.90;;;;;;6155559;23;20447;-78
2022/09/08 19:46:01;;;;;;;10.77;9.87;;;19.30;99.90;;;;;;6154371;23;20516;-78
2022/09/08 19:48:40;;;;;;;8.70;7.90;;;19.30;99.90;;;;;;6123371;23;20524;-79
2022/09/08 19:51:16;;;;;;;9.83;9.07;;;19.30;99.90;;;;;;6155575;23;20444;-76
2022/09/08 19:53:46;;;;;;;20.73;18.53;;;19.20;99.90;;;;;;6153865;23;20758;-75
2022/09/08 19:56:36;;;;;;;14.30;12.80;;;19.20;99.90;;;;;;6155690;23;20473;-78
2022/09/08 19:59:27;;;;;;;12.77;11.57;;;19.30;99.90;;;;;;6155199;23;20448;-78
2022/09/08 20:01:56;;;;;;;7.40;6.80;;;19.20;99.90;;;;;;6154976;23;20449;-78
2022/09/08 20:04:28;;;;;;;9.60;8.70;;;19.20;99.90;;;;;;6154556;23;20453;-77
2022/09/08 20:07:07;;;;;;;6.90;6.40;;;19.20;99.90;;;;;;6155620;23;20437;-79
2022/09/08 20:09:43;;;;;;;7.50;6.80;;;19.30;99.90;;;;;;6154586;23;20493;-76
2022/09/08 20:12:21;;;;;;;10.50;9.37;;;19.20;99.90;;;;;;6162569;23;20519;-77
2022/09/08 20:14:52;;;;;;;8.57;7.67;;;19.20;99.90;;;;;;6154766;23;20437;-77
2022/09/08 20:17:27;;;;;;;8.20;7.50;;;19.20;99.90;;;;;;6143596;23;20440;-77
2022/09/08 20:20:14;;;;;;;10.17;9.27;;;19.20;99.90;;;;;;6159541;23;20449;-76
2022/09/08 20:22:49;;;;;;;36.30;26.83;;;19.20;99.90;;;;;;6155390;23;20507;-77
2022/09/08 20:25:27;;;;;;;18.60;16.83;;;19.30;99.90;;;;;;6135806;23;20437;-77
2022/09/08 20:28:16;;;;;;;13.10;11.90;;;19.30;99.90;;;;;;6154959;23;20727;-78
2022/09/08 20:30:58;;;;;;;15.57;14.13;;;19.30;99.90;;;;;;6154974;23;20433;-77
2022/09/08 20:33:41;;;;;;;33.50;29.97;;;19.30;99.90;;;;;;6154129;23;20771;-76
2022/09/08 20:36:24;;;;;;;14.77;13.30;;;19.30;99.90;;;;;;6164230;23;20472;-76
2022/09/08 20:39:35;;;;;;;13.40;10.77;;;19.30;99.90;;;;;;6136490;23;20428;-76
2022/09/08 20:42:17;;;;;;;9.07;8.20;;;19.30;99.90;;;;;;6160839;23;20900;-76
2022/09/08 20:45:16;;;;;;;8.73;7.97;;;19.30;99.90;;;;;;6156198;23;20421;-77
2022/09/08 20:47:51;;;;;;;9.53;8.63;;;19.30;99.90;;;;;;6156130;23;20429;-77
2022/09/08 20:50:26;;;;;;;12.53;11.23;;;19.30;99.90;;;;;;6156303;23;20468;-77
2022/09/08 20:53:09;;;;;;;11.67;10.47;;;19.30;99.90;;;;;;6155086;23;20417;-76
2022/09/08 20:55:40;;;;;;;20.47;18.40;;;19.20;99.90;;;;;;6141701;23;20520;-76
2022/09/08 20:58:16;;;;;;;19.70;17.70;;;19.20;99.90;;;;;;6143398;23;20451;-77
2022/09/08 21:00:52;;;;;;;26.17;23.27;;;19.20;99.90;;;;;;6147866;23;20440;-75
2022/09/08 21:03:39;;;;;;;11.47;10.47;;;19.20;99.90;;;;;;6153467;23;20437;-77
2022/09/08 21:06:18;;;;;;;15.30;12.50;;;19.20;99.90;;;;;;6154514;23;20441;-76
2022/09/08 21:08:54;;;;;;;10.67;9.63;;;19.20;99.90;;;;;;6155326;23;20444;-76
2022/09/08 21:11:33;;;;;;;8.17;7.50;;;19.20;99.90;;;;;;6154209;23;20436;-76
2022/09/08 21:14:26;;;;;;;16.00;14.50;;;19.20;99.90;;;;;;6164884;23;20434;-76
2022/09/08 21:17:04;;;;;;;14.27;12.97;;;19.10;99.90;;;;;;6141528;23;20465;-78
2022/09/08 21:22:36;;;;;;;28.33;24.53;;;19.10;99.90;;;;;;6115740;23;20801;-77
2022/09/08 21:25:22;;;;;;;10.97;9.97;;;19.10;99.90;;;;;;6156513;23;20437;-77
2022/09/08 21:28:06;;;;;;;8.80;8.07;;;19.10;99.90;;;;;;6156346;23;20737;-77
2022/09/08 21:31:01;;;;;;;13.07;11.33;;;19.10;99.90;;;;;;6132242;23;20477;-77
2022/09/08 21:33:40;;;;;;;19.47;17.37;;;19.10;99.90;;;;;;6156700;23;20438;-77
2022/09/08 21:36:31;;;;;;;26.37;23.60;;;19.10;99.90;;;;;;6156172;23;20492;-76
2022/09/08 21:39:02;;;;;;;13.97;12.63;;;19.10;99.90;;;;;;6143084;23;20449;-77
2022/09/08 21:41:52;;;;;;;14.20;12.73;;;19.10;99.90;;;;;;6166921;23;20444;-78
2022/09/08 21:44:23;;;;;;;7.93;7.00;;;19.10;99.90;;;;;;6155223;23;20675;-77
2022/09/08 21:46:54;;;;;;;13.90;12.40;;;19.10;99.90;;;;;;6154114;23;20913;-77
2022/09/08 21:49:43;;;;;;;10.40;9.50;;;19.00;99.90;;;;;;6155364;23;20501;-78
2022/09/08 21:52:22;;;;;;;10.67;9.77;;;19.10;99.90;;;;;;6154172;23;20470;-76
2022/09/08 21:54:51;;;;;;;10.47;9.30;;;19.00;99.90;;;;;;6163303;23;20465;-77
2022/09/08 21:57:27;;;;;;;39.50;29.27;;;19.00;99.90;;;;;;6153522;23;20448;-78
2022/09/08 21:59:58;;;;;;;14.50;13.00;;;19.00;99.90;;;;;;6156347;23;20437;-78
2022/09/08 22:02:34;;;;;;;13.77;12.13;;;19.00;99.90;;;;;;6154658;23;20490;-76
2022/09/08 22:05:35;;;;;;;15.27;13.83;;;19.00;99.90;;;;;;6152789;23;20448;-76
2022/09/08 22:08:07;;;;;;;17.80;16.00;;;18.90;99.90;;;;;;6158243;23;20448;-76
2022/09/08 22:10:36;;;;;;;18.33;16.33;;;18.90;99.90;;;;;;6169599;23;20524;-77
2022/09/08 22:13:12;;;;;;;13.17;11.90;;;18.90;99.90;;;;;;6154310;23;20864;-78
2022/09/08 22:15:42;;;;;;;12.77;11.47;;;18.90;99.90;;;;;;6143518;23;20438;-75
2022/09/08 22:18:19;;;;;;;29.07;25.67;;;18.90;99.90;;;;;;6154187;23;20437;-77
2022/09/08 22:20:56;;;;;;;39.70;35.50;;;18.90;99.90;;;;;;6155431;23;20495;-78
2022/09/08 22:23:29;;;;;;;24.23;21.70;;;18.80;99.90;;;;;;6152680;23;20448;-77
2022/09/08 22:26:07;;;;;;;12.90;11.70;;;18.80;99.90;;;;;;6155085;23;20438;-75
2022/09/08 22:28:42;;;;;;;9.70;8.80;;;18.80;99.90;;;;;;6154042;23;20424;-77
2022/09/08 22:31:30;;;;;;;7.73;7.13;;;18.80;99.90;;;;;;6155412;23;20501;-77
2022/09/08 22:34:10;;;;;;;8.83;7.93;;;18.70;99.90;;;;;;6154241;23;20438;-77
2022/09/08 22:36:51;;;;;;;13.50;12.13;;;18.70;99.90;;;;;;6154563;23;20496;-77
2022/09/08 22:39:37;;;;;;;15.33;13.93;;;18.70;99.90;;;;;;6154480;23;20426;-77
2022/09/08 22:42:13;;;;;;;10.73;9.60;;;18.70;99.90;;;;;;6141406;23;20505;-76
2022/09/08 22:44:48;;;;;;;9.53;8.60;;;18.70;99.90;;;;;;6172321;23;20923;-75
2022/09/08 22:47:28;;;;;;;16.70;15.00;;;18.70;99.90;;;;;;6154623;23;20434;-76
2022/09/08 22:49:58;;;;;;;8.03;7.33;;;18.60;99.90;;;;;;6156033;23;20951;-76
2022/09/08 22:52:40;;;;;;;7.20;6.53;;;18.60;99.90;;;;;;6154188;23;20486;-78
2022/09/08 22:55:19;;;;;;;8.07;7.47;;;18.60;99.90;;;;;;6153498;23;20445;-79
2022/09/08 22:58:12;;;;;;;8.53;7.80;;;18.60;99.90;;;;;;6154317;23;20429;-77
2022/09/08 23:00:52;;;;;;;8.77;8.00;;;18.60;99.90;;;;;;6154081;23;20438;-76
2022/09/08 23:03:32;;;;;;;6.77;6.17;;;18.60;99.90;;;;;;6152857;23;20447;-76
2022/09/08 23:06:04;;;;;;;5.90;5.40;;;18.60;99.90;;;;;;6152892;23;20440;-77
2022/09/08 23:08:44;;;;;;;6.37;5.87;;;18.60;99.90;;;;;;6151695;23;20557;-75
2022/09/08 23:11:20;;;;;;;7.40;5.83;;;18.60;99.90;;;;;;6152994;23;20441;-76
2022/09/08 23:13:53;;;;;;;6.80;6.30;;;18.50;99.90;;;;;;6156098;23;20437;-76
2022/09/08 23:16:26;;;;;;;6.90;6.20;;;18.50;99.90;;;;;;6154455;23;20448;-78
2022/09/08 23:18:56;;;;;;;7.60;6.77;;;18.50;99.90;;;;;;6155565;23;20517;-77
2022/09/08 23:21:32;;;;;;;9.73;8.93;;;18.50;99.90;;;;;;6153578;23;20436;-78
2022/09/08 23:24:18;;;;;;;6.30;5.90;;;18.50;99.90;;;;;;6155815;23;20921;-78
2022/09/08 23:26:57;;;;;;;6.33;5.77;;;18.50;99.90;;;;;;6156069;23;20437;-78
2022/09/08 23:29:33;;;;;;;5.87;5.47;;;18.50;99.90;;;;;;6156392;23;20430;-77
2022/09/08 23:32:15;;;;;;;8.07;7.37;;;18.50;99.90;;;;;;6138789;23;20453;-78
2022/09/08 23:34:59;;;;;;;5.70;5.30;;;18.50;99.90;;;;;;6154573;23;20711;-76
2022/09/08 23:37:55;;;;;;;6.60;5.90;;;18.50;99.90;;;;;;6164863;23;20444;-78
2022/09/08 23:40:42;;;;;;;6.23;5.70;;;18.40;99.90;;;;;;6136646;23;20449;-78
2022/09/08 23:43:13;;;;;;;6.40;5.90;;;18.40;99.90;;;;;;6153455;23;20487;-77
2022/09/08 23:45:48;;;;;;;6.33;5.83;;;18.40;99.90;;;;;;6166697;23;20506;-77
2022/09/08 23:48:18;;;;;;;6.37;5.87;;;18.40;99.90;;;;;;6156743;23;20498;-78
2022/09/08 23:53:35;;;;;;;12.23;10.83;;;18.30;99.90;;;;;;6136339;23;20432;-76
2022/09/08 23:56:19;;;;;;;9.57;8.67;;;18.30;99.90;;;;;;6150286;23;20447;-76
2022/09/08 23:58:48;;;;;;;7.67;6.97;;;18.30;99.90;;;;;;6166050;23;20429;-75
